EDDS

Stuttgart Airport

Airport
ICAO code
EDDS
IATA Code
STR
Summary
ICAO Region
EUR
ICAO Territory
Location

Echterdingen, Stuttgart,

Serving
Stuttgart
Elevation
1276 ft
Coordinates
48° 41' 17" N , 9° 12' 37" E
KCC
Metar
Observation
EDDS 011220Z AUTO 35006KT 9999 OVC011 03/00 Q1021 NOSIG
Station
Stuttgart-Echterdingen
Date/Time
2022-12-01 12:20:00
Wind direction
350°
Wind speed
06 kts
Lowest cloud amount
overcast
Temperature
3°C
Dew point
0°C
Humidity
80%
QNH
1021 hPa
Weather condition
n/a

Description

International airport serving Stuttgart, Germany.

Climatology

Temperate Marine climate/Oceanic climate (Köppen climate classification Cfb) - Moderately cool summer and comparatively warm winter.

Runways

Designator Length Width Surface Rops
7/25 3345 45 CON Yes/Yes

SKYbrary Partners:

Safety knowledge contributed by: